Time;durP1;ratioP1;P1;durP2;ratioP2;P2;SDS_P1;SDS_P2;PMS_P1;PMS_P2;Temp;Humidity;BMP_temperature;BMP_pressure;BME280_temperature;BME280_humidity;BME280_pressure;Samples;Min_cycle;Max_cycle;Signal;HPM_P1;HPM_P2
2021/04/24 00:01:59;;;;;;;17.58;7.10;;;5.00;99.90;;;;;;5054630;28;20107;-71
2021/04/24 00:04:26;;;;;;;15.15;7.28;;;5.00;99.90;;;;;;5054301;28;20071;-70
2021/04/24 00:06:52;;;;;;;16.08;6.93;;;5.00;99.90;;;;;;5054776;28;20479;-71
2021/04/24 00:09:18;;;;;;;13.60;6.55;;;4.90;99.90;;;;;;5054930;28;20025;-71
2021/04/24 00:11:44;;;;;;;11.65;6.90;;;4.90;99.90;;;;;;5054697;28;20642;-71
2021/04/24 00:14:10;;;;;;;15.27;7.22;;;4.90;99.90;;;;;;5053860;28;20071;-71
2021/04/24 00:16:36;;;;;;;11.80;6.93;;;4.90;99.90;;;;;;5054610;28;20036;-71
2021/04/24 00:19:01;;;;;;;12.48;6.10;;;4.90;99.90;;;;;;5054752;28;20021;-71
2021/04/24 00:21:28;;;;;;;12.80;7.20;;;4.80;99.90;;;;;;5054966;28;20017;-72
2021/04/24 00:23:53;;;;;;;9.95;6.40;;;4.80;99.90;;;;;;5054241;28;20078;-71
2021/04/24 00:26:19;;;;;;;11.20;7.05;;;4.80;99.90;;;;;;5054430;28;20037;-72
2021/04/24 00:28:45;;;;;;;13.98;6.75;;;4.80;99.90;;;;;;5054406;28;20033;-70
2021/04/24 00:31:10;;;;;;;14.77;7.22;;;4.90;99.90;;;;;;5053997;28;20380;-71
2021/04/24 00:33:37;;;;;;;11.75;6.88;;;4.70;99.90;;;;;;5054147;28;20025;-70
2021/04/24 00:36:03;;;;;;;15.20;7.22;;;4.60;99.90;;;;;;5054388;28;20112;-72
2021/04/24 00:38:29;;;;;;;15.95;7.85;;;4.50;99.90;;;;;;5054288;28;20025;-70
2021/04/24 00:40:55;;;;;;;13.77;6.68;;;4.40;99.90;;;;;;5053974;28;20441;-71
2021/04/24 00:43:20;;;;;;;15.98;7.70;;;4.40;99.90;;;;;;5035327;28;20055;-72
2021/04/24 00:45:46;;;;;;;15.65;7.20;;;4.40;99.90;;;;;;5054046;28;20507;-71
2021/04/24 00:48:12;;;;;;;12.57;6.93;;;4.30;99.90;;;;;;5054141;28;20028;-70
2021/04/24 00:50:39;;;;;;;17.35;7.07;;;4.30;99.90;;;;;;5054149;28;20517;-71
2021/04/24 00:53:06;;;;;;;10.95;6.75;;;4.20;99.90;;;;;;5053169;28;20109;-71
2021/04/24 00:55:33;;;;;;;15.73;7.47;;;4.30;99.90;;;;;;5054117;28;20032;-70
2021/04/24 00:57:59;;;;;;;13.27;6.68;;;4.20;99.90;;;;;;5054142;28;20052;-70
2021/04/24 01:00:25;;;;;;;17.20;7.57;;;4.10;99.90;;;;;;5054124;28;20059;-71
2021/04/24 01:02:52;;;;;;;17.65;7.15;;;4.10;99.90;;;;;;5053415;28;20761;-71
2021/04/24 01:05:26;;;;;;;12.55;6.03;;;4.10;99.90;;;;;;5034631;28;20483;-70
2021/04/24 01:07:52;;;;;;;12.45;6.40;;;4.00;99.90;;;;;;5054491;28;20029;-71
2021/04/24 01:10:19;;;;;;;15.30;7.45;;;3.90;99.90;;;;;;5053990;28;20024;-71
2021/04/24 01:12:47;;;;;;;13.25;6.70;;;3.90;99.90;;;;;;5053591;28;20430;-71
2021/04/24 01:15:14;;;;;;;17.23;7.22;;;3.90;99.90;;;;;;5035638;28;20025;-71
2021/04/24 01:17:40;;;;;;;12.15;6.63;;;3.80;99.90;;;;;;5053640;28;20024;-71
2021/04/24 01:20:08;;;;;;;13.00;7.10;;;3.70;99.90;;;;;;5053911;28;20543;-71
2021/04/24 01:22:34;;;;;;;10.93;6.68;;;3.70;99.90;;;;;;5053867;28;20074;-71
2021/04/24 01:25:00;;;;;;;10.07;6.30;;;3.70;99.90;;;;;;5052596;28;20032;-71
2021/04/24 01:27:26;;;;;;;14.90;7.57;;;3.70;99.90;;;;;;5053650;28;20017;-71
2021/04/24 01:29:52;;;;;;;12.80;6.95;;;3.70;99.90;;;;;;5053495;28;20032;-71
2021/04/24 01:32:18;;;;;;;14.73;6.95;;;3.60;99.90;;;;;;5053062;28;20025;-71
2021/04/24 01:34:44;;;;;;;13.60;7.10;;;3.60;99.90;;;;;;5052625;28;20475;-70
2021/04/24 01:37:09;;;;;;;11.23;6.28;;;3.60;99.90;;;;;;5053186;28;20029;-70
2021/04/24 01:39:35;;;;;;;14.25;7.75;;;3.60;99.90;;;;;;5053050;28;20115;-72
2021/04/24 01:42:01;;;;;;;13.00;7.18;;;3.30;99.90;;;;;;5053231;28;20040;-71
2021/04/24 01:44:26;;;;;;;12.45;6.63;;;3.30;99.90;;;;;;5052765;28;20036;-70
2021/04/24 01:46:52;;;;;;;13.32;7.30;;;3.30;99.90;;;;;;5053178;28;20566;-71
2021/04/24 01:49:18;;;;;;;13.10;7.75;;;3.30;99.90;;;;;;5053795;28;20092;-71
2021/04/24 01:51:44;;;;;;;18.20;8.18;;;3.20;99.90;;;;;;5053283;28;20021;-71
2021/04/24 01:54:10;;;;;;;15.68;7.80;;;3.30;99.90;;;;;;5052246;28;20494;-71
2021/04/24 01:56:50;;;;;;;15.57;7.20;;;3.30;99.90;;;;;;5053187;28;20158;-72
2021/04/24 01:59:18;;;;;;;14.80;7.57;;;3.20;99.90;;;;;;5053085;28;20025;-70
2021/04/24 02:01:47;;;;;;;15.52;8.27;;;3.20;99.90;;;;;;5052473;28;20028;-70
2021/04/24 02:04:13;;;;;;;14.70;8.02;;;3.20;99.90;;;;;;5052075;28;20104;-71
2021/04/24 02:06:39;;;;;;;15.82;7.65;;;3.20;99.90;;;;;;5052263;28;20422;-70
2021/04/24 02:09:09;;;;;;;14.45;8.30;;;3.20;99.90;;;;;;5052352;28;20025;-70
2021/04/24 02:11:35;;;;;;;16.42;8.15;;;3.10;99.90;;;;;;5052426;28;20373;-72
2021/04/24 02:14:01;;;;;;;12.98;7.68;;;3.10;99.90;;;;;;5051575;28;20028;-70
2021/04/24 02:16:26;;;;;;;11.95;7.82;;;3.10;99.90;;;;;;5051754;28;20032;-70
2021/04/24 02:18:52;;;;;;;13.70;7.18;;;3.00;99.90;;;;;;5052249;28;20403;-71
2021/04/24 02:21:18;;;;;;;16.25;7.30;;;3.00;99.90;;;;;;5052284;28;20544;-71
2021/04/24 02:23:43;;;;;;;17.38;7.50;;;2.90;99.90;;;;;;5051248;28;20048;-71
2021/04/24 02:26:09;;;;;;;16.80;7.75;;;2.90;99.90;;;;;;5052017;28;20031;-70
2021/04/24 02:28:36;;;;;;;19.70;8.23;;;2.80;99.90;;;;;;5052106;28;20510;-72
2021/04/24 02:31:02;;;;;;;14.82;6.68;;;2.70;99.90;;;;;;5052083;28;20023;-69
2021/04/24 02:33:28;;;;;;;11.65;7.50;;;2.70;99.90;;;;;;5050934;28;20024;-69
2021/04/24 02:35:59;;;;;;;13.30;7.85;;;2.70;99.90;;;;;;5051971;28;20025;-70
2021/04/24 02:38:27;;;;;;;17.80;8.07;;;2.70;99.90;;;;;;5051910;28;20519;-69
2021/04/24 02:40:54;;;;;;;16.73;8.10;;;2.70;99.90;;;;;;5051887;28;20028;-70
2021/04/24 02:43:20;;;;;;;16.83;8.35;;;2.80;99.90;;;;;;5051122;28;20032;-70
2021/04/24 02:45:47;;;;;;;14.00;8.20;;;2.70;99.90;;;;;;5051672;28;20037;-71
2021/04/24 02:48:13;;;;;;;13.98;7.90;;;2.80;99.90;;;;;;5051662;28;20618;-71
2021/04/24 02:50:39;;;;;;;19.65;8.10;;;2.70;99.90;;;;;;5052136;28;20062;-71
2021/04/24 02:53:05;;;;;;;17.70;8.82;;;2.60;99.90;;;;;;5050960;28;20021;-71
2021/04/24 02:55:31;;;;;;;18.08;8.85;;;2.60;99.90;;;;;;5072554;22;20513;-69
2021/04/24 02:57:57;;;;;;;19.45;7.82;;;2.50;99.90;;;;;;5051151;28;20494;-70
2021/04/24 03:00:24;;;;;;;19.33;9.13;;;2.50;99.90;;;;;;5050430;28;20033;-68
2021/04/24 03:03:02;;;;;;;22.88;9.95;;;2.40;99.90;;;;;;5050903;28;20117;-70
2021/04/24 03:05:28;;;;;;;14.90;9.48;;;2.40;99.90;;;;;;5051639;28;20086;-70
2021/04/24 03:07:53;;;;;;;20.58;10.05;;;2.40;99.90;;;;;;5051373;28;20020;-71
2021/04/24 03:10:20;;;;;;;19.17;9.30;;;2.30;99.90;;;;;;5051253;28;20029;-69
2021/04/24 03:12:46;;;;;;;20.55;8.57;;;2.30;99.90;;;;;;5050795;28;20495;-70
2021/04/24 03:15:12;;;;;;;16.23;9.82;;;2.20;99.90;;;;;;5051119;28;20052;-70
2021/04/24 03:17:38;;;;;;;14.35;8.88;;;2.20;99.90;;;;;;5051356;28;20024;-70
2021/04/24 03:20:06;;;;;;;18.85;9.43;;;2.10;99.90;;;;;;5051167;28;20017;-70
2021/04/24 03:22:32;;;;;;;14.98;8.98;;;2.20;99.90;;;;;;5051236;28;20023;-70
2021/04/24 03:24:58;;;;;;;15.55;9.52;;;2.20;99.90;;;;;;5050403;28;20437;-70
2021/04/24 03:27:23;;;;;;;15.88;9.20;;;2.20;99.90;;;;;;5052076;28;20098;-70
2021/04/24 03:29:49;;;;;;;12.98;8.95;;;2.20;99.90;;;;;;5055304;28;20021;-70
2021/04/24 03:32:15;;;;;;;15.70;9.10;;;2.20;99.90;;;;;;5055796;28;20541;-70
2021/04/24 03:34:40;;;;;;;17.17;9.32;;;2.20;99.90;;;;;;5055069;28;20398;-71
2021/04/24 03:37:06;;;;;;;19.30;9.98;;;2.20;99.90;;;;;;5056366;28;20100;-70
2021/04/24 03:39:32;;;;;;;16.83;7.80;;;2.10;99.90;;;;;;5079395;28;20040;-74
2021/04/24 03:41:57;;;;;;;19.75;9.07;;;2.10;99.90;;;;;;5049271;28;20082;-71
2021/04/24 03:44:23;;;;;;;18.60;9.35;;;2.00;99.90;;;;;;5036356;28;20021;-72
2021/04/24 03:46:48;;;;;;;26.40;9.63;;;2.00;99.90;;;;;;5037360;28;20025;-71
2021/04/24 03:49:15;;;;;;;20.75;9.38;;;1.90;99.90;;;;;;5055126;28;20021;-70
2021/04/24 03:51:41;;;;;;;25.63;9.38;;;1.90;99.90;;;;;;5054934;28;20495;-71
2021/04/24 03:54:07;;;;;;;15.98;8.60;;;1.90;99.90;;;;;;5053893;28;20029;-71
2021/04/24 03:56:34;;;;;;;20.38;8.73;;;1.90;99.90;;;;;;5054886;28;20025;-71
2021/04/24 03:59:00;;;;;;;18.27;10.00;;;1.90;99.90;;;;;;5054895;28;20025;-71
2021/04/24 04:01:25;;;;;;;18.48;9.68;;;1.80;99.90;;;;;;5055001;28;20025;-71
2021/04/24 04:03:51;;;;;;;15.77;8.77;;;1.80;99.90;;;;;;5054446;28;20585;-71
2021/04/24 04:06:17;;;;;;;17.17;7.95;;;1.70;99.90;;;;;;5054592;28;20400;-70
2021/04/24 04:08:42;;;;;;;16.55;8.93;;;1.70;99.90;;;;;;5054874;28;20013;-69
2021/04/24 04:11:08;;;;;;;18.00;8.90;;;1.70;99.90;;;;;;5054968;28;20029;-70
2021/04/24 04:13:34;;;;;;;17.10;8.38;;;1.60;99.90;;;;;;5054007;28;20056;-71
2021/04/24 04:15:59;;;;;;;21.42;8.93;;;1.60;99.90;;;;;;5036348;28;20029;-71
2021/04/24 04:18:25;;;;;;;14.85;8.57;;;1.50;99.90;;;;;;5054523;28;20555;-70
2021/04/24 04:20:53;;;;;;;15.68;8.32;;;1.40;99.90;;;;;;5054630;28;20049;-70
2021/04/24 04:23:20;;;;;;;23.33;8.93;;;1.40;99.90;;;;;;5053756;28;20104;-70
2021/04/24 04:25:47;;;;;;;16.88;9.02;;;1.50;99.90;;;;;;5054001;28;20033;-69
2021/04/24 04:28:13;;;;;;;22.67;9.10;;;1.50;99.90;;;;;;5054521;28;20017;-70
2021/04/24 04:30:40;;;;;;;23.23;10.30;;;1.50;99.90;;;;;;5054336;28;20025;-70
2021/04/24 04:33:07;;;;;;;18.77;9.77;;;1.50;99.90;;;;;;5053811;28;20054;-71
2021/04/24 04:35:35;;;;;;;19.55;10.00;;;1.40;99.90;;;;;;5036315;28;20029;-70
2021/04/24 04:38:01;;;;;;;17.58;9.15;;;1.40;99.90;;;;;;5053853;28;20442;-71
2021/04/24 04:40:26;;;;;;;17.80;10.20;;;1.50;99.90;;;;;;5054091;28;20033;-71
2021/04/24 04:42:52;;;;;;;15.25;8.88;;;1.60;99.90;;;;;;5053707;28;20048;-71
2021/04/24 04:45:19;;;;;;;18.38;9.65;;;1.60;99.90;;;;;;5053802;28;20534;-71
2021/04/24 04:47:46;;;;;;;21.98;10.45;;;1.70;99.90;;;;;;5054166;28;20097;-70
2021/04/24 04:50:16;;;;;;;16.23;8.63;;;1.70;99.90;;;;;;5054064;28;20477;-70
2021/04/24 04:52:42;;;;;;;27.90;9.93;;;1.70;99.90;;;;;;5053631;28;20037;-70
2021/04/24 04:55:09;;;;;;;18.30;10.27;;;1.80;99.90;;;;;;5036379;28;20025;-70
2021/04/24 04:57:34;;;;;;;21.27;9.35;;;1.80;99.90;;;;;;5034794;28;20056;-71
2021/04/24 05:00:00;;;;;;;18.38;9.50;;;1.90;99.90;;;;;;5029681;28;20029;-70
2021/04/24 05:02:26;;;;;;;14.48;9.05;;;1.90;99.90;;;;;;5055335;28;20025;-70
2021/04/24 05:04:52;;;;;;;17.85;9.60;;;2.00;99.90;;;;;;5053540;28;20451;-70
2021/04/24 05:07:18;;;;;;;20.58;9.38;;;1.90;99.90;;;;;;5054104;28;20033;-70
2021/04/24 05:09:43;;;;;;;17.38;9.00;;;1.90;99.90;;;;;;5053651;28;20025;-71
2021/04/24 05:12:09;;;;;;;20.75;9.00;;;2.00;99.90;;;;;;5053770;28;20150;-70
2021/04/24 05:14:35;;;;;;;15.73;8.63;;;1.90;99.90;;;;;;5053318;28;20382;-71
2021/04/24 05:17:01;;;;;;;13.23;7.88;;;1.90;99.90;;;;;;5053852;28;20028;-71
2021/04/24 05:19:27;;;;;;;15.15;8.05;;;1.90;99.90;;;;;;5053489;28;20033;-70
2021/04/24 05:21:52;;;;;;;17.73;8.45;;;1.90;99.90;;;;;;5053556;28;20024;-70
2021/04/24 05:24:18;;;;;;;18.33;8.43;;;1.90;99.90;;;;;;5052461;28;20043;-70
2021/04/24 05:26:44;;;;;;;15.68;8.82;;;1.90;99.90;;;;;;5053464;28;20505;-70
2021/04/24 05:29:10;;;;;;;13.82;7.72;;;1.90;99.90;;;;;;5053361;28;20063;-71
2021/04/24 05:31:36;;;;;;;19.02;8.70;;;1.90;99.90;;;;;;5053369;28;20047;-71
2021/04/24 05:34:03;;;;;;;13.70;7.35;;;2.10;99.90;;;;;;5052808;28;20120;-71
2021/04/24 05:36:29;;;;;;;16.63;8.15;;;2.20;99.90;;;;;;5053094;28;20052;-71
2021/04/24 05:38:55;;;;;;;18.55;9.40;;;2.30;99.90;;;;;;5053051;28;20064;-70
2021/04/24 05:41:21;;;;;;;13.50;8.02;;;2.40;99.90;;;;;;5052802;28;20121;-72
2021/04/24 05:43:53;;;;;;;21.45;9.80;;;2.50;99.90;;;;;;5052448;28;20025;-71
2021/04/24 05:46:20;;;;;;;20.63;8.95;;;2.60;99.90;;;;;;5052700;28;20475;-71
2021/04/24 05:48:46;;;;;;;20.92;8.98;;;2.70;99.90;;;;;;5053052;28;20021;-71
2021/04/24 05:51:12;;;;;;;15.65;8.05;;;2.80;99.90;;;;;;5051961;28;20086;-71
2021/04/24 05:53:38;;;;;;;16.45;8.23;;;2.80;99.90;;;;;;5034088;28;20025;-71
2021/04/24 05:56:04;;;;;;;16.13;7.85;;;2.90;99.90;;;;;;5052435;28;20047;-72
2021/04/24 05:58:30;;;;;;;18.05;8.40;;;3.00;99.90;;;;;;5052759;28;20029;-70
2021/04/24 06:00:56;;;;;;;14.27;7.50;;;2.90;99.90;;;;;;5052539;28;20021;-71
2021/04/24 06:03:22;;;;;;;14.98;7.53;;;3.00;99.90;;;;;;5051338;28;20451;-70
2021/04/24 06:05:47;;;;;;;16.50;8.15;;;2.90;99.90;;;;;;5052462;28;20021;-71
2021/04/24 06:08:14;;;;;;;14.57;7.20;;;3.20;99.90;;;;;;5050906;28;20025;-72
2021/04/24 06:10:39;;;;;;;18.35;8.50;;;3.20;99.90;;;;;;5032018;28;20138;-71
2021/04/24 06:13:05;;;;;;;15.75;8.75;;;3.40;99.90;;;;;;5056544;28;20056;-71
2021/04/24 06:15:31;;;;;;;13.70;7.38;;;3.50;99.90;;;;;;5050168;28;20039;-72
2021/04/24 06:17:56;;;;;;;17.50;8.07;;;3.80;99.90;;;;;;5051213;28;20499;-71
2021/04/24 06:20:22;;;;;;;16.40;8.38;;;3.80;99.90;;;;;;5050943;28;20103;-72
2021/04/24 06:22:48;;;;;;;16.48;8.00;;;3.90;99.90;;;;;;5050383;28;20083;-72
2021/04/24 06:25:19;;;;;;;12.35;7.40;;;4.00;99.90;;;;;;5050693;28;20083;-73
2021/04/24 06:27:45;;;;;;;17.10;7.43;;;4.10;99.90;;;;;;5051714;28;20021;-72
2021/04/24 06:30:14;;;;;;;17.13;7.50;;;4.10;99.90;;;;;;5050526;28;20036;-72
2021/04/24 06:32:40;;;;;;;16.42;8.05;;;4.20;99.90;;;;;;5049406;28;20379;-72
2021/04/24 06:35:07;;;;;;;13.13;7.82;;;4.20;99.90;;;;;;5051185;28;20025;-71
2021/04/24 06:37:34;;;;;;;11.93;6.97;;;4.30;99.90;;;;;;5051246;28;20052;-70
2021/04/24 06:39:59;;;;;;;17.15;8.68;;;4.50;99.90;;;;;;5050888;28;20168;-71
2021/04/24 06:42:25;;;;;;;17.90;7.53;;;4.50;99.90;;;;;;5050212;28;20126;-71
2021/04/24 06:44:51;;;;;;;17.10;7.40;;;4.60;99.90;;;;;;5051156;28;20543;-72
2021/04/24 06:47:17;;;;;;;11.40;7.03;;;4.80;99.90;;;;;;5044816;28;20033;-71
2021/04/24 06:49:42;;;;;;;15.23;7.32;;;4.90;99.90;;;;;;5033242;28;20029;-71
2021/04/24 06:52:08;;;;;;;14.43;7.03;;;5.00;99.90;;;;;;5030655;28;20162;-70
2021/04/24 06:54:35;;;;;;;13.63;7.78;;;5.10;99.90;;;;;;5048121;28;20037;-71
2021/04/24 06:57:00;;;;;;;14.30;7.50;;;5.40;99.90;;;;;;5033993;28;20029;-73
2021/04/24 06:59:26;;;;;;;16.23;7.97;;;5.40;99.90;;;;;;5032169;28;20037;-71
2021/04/24 07:01:52;;;;;;;11.63;7.05;;;5.60;99.90;;;;;;5032927;28;20036;-74
2021/04/24 07:04:18;;;;;;;15.32;7.75;;;5.80;99.90;;;;;;5049836;28;20043;-73
2021/04/24 07:06:43;;;;;;;14.02;7.38;;;6.00;99.90;;;;;;5050343;28;20032;-70
2021/04/24 07:09:09;;;;;;;13.63;7.28;;;6.10;99.90;;;;;;5050148;28;20025;-71
2021/04/24 07:11:35;;;;;;;13.65;6.72;;;6.30;99.90;;;;;;5050121;28;20025;-73
2021/04/24 07:14:00;;;;;;;12.15;6.50;;;6.40;99.90;;;;;;5048882;28;20121;-71
2021/04/24 07:16:26;;;;;;;11.70;7.10;;;6.60;99.90;;;;;;5048567;28;20028;-71
2021/04/24 07:18:52;;;;;;;8.68;6.72;;;6.70;99.90;;;;;;5050511;28;20027;-71
2021/04/24 07:21:17;;;;;;;12.48;6.32;;;6.80;99.90;;;;;;5055283;28;20021;-71
2021/04/24 07:23:43;;;;;;;11.43;6.75;;;6.90;99.90;;;;;;5049527;28;20029;-71
2021/04/24 07:26:09;;;;;;;10.95;6.43;;;7.10;99.90;;;;;;5050386;28;20071;-72
2021/04/24 07:28:36;;;;;;;11.57;6.15;;;7.30;99.90;;;;;;5052715;28;20435;-77
2021/04/24 07:31:02;;;;;;;10.43;5.85;;;8.30;99.90;;;;;;5060227;28;20049;-74
2021/04/24 07:33:28;;;;;;;13.73;6.32;;;9.00;99.90;;;;;;5052806;28;20036;-78
2021/04/24 07:35:55;;;;;;;16.58;6.75;;;9.20;99.90;;;;;;5052197;28;20025;-76
2021/04/24 07:38:21;;;;;;;14.13;6.90;;;9.50;99.90;;;;;;5052369;28;20040;-77
2021/04/24 07:40:48;;;;;;;13.57;6.35;;;9.60;99.90;;;;;;5054619;28;20084;-76
2021/04/24 07:43:14;;;;;;;14.80;7.20;;;9.80;99.90;;;;;;5036969;28;20025;-74
2021/04/24 07:45:41;;;;;;;15.73;7.00;;;9.70;99.90;;;;;;5054728;28;20021;-73
2021/04/24 07:48:07;;;;;;;11.73;7.22;;;9.50;99.90;;;;;;5052811;28;20043;-72
2021/04/24 07:50:34;;;;;;;14.38;6.85;;;9.50;99.90;;;;;;5059451;28;20021;-71
2021/04/24 07:53:00;;;;;;;12.77;7.28;;;9.40;99.90;;;;;;5051627;28;20029;-72
2021/04/24 07:55:27;;;;;;;12.68;7.13;;;9.40;99.90;;;;;;5011567;28;652458;-72
2021/04/24 07:57:53;;;;;;;13.13;6.93;;;9.40;99.90;;;;;;5055304;28;20031;-70
2021/04/24 08:00:19;;;;;;;15.30;7.22;;;9.60;99.90;;;;;;5060588;28;20076;-72
2021/04/24 08:02:45;;;;;;;13.82;7.32;;;10.10;99.90;;;;;;5049037;28;20114;-70
2021/04/24 08:05:11;;;;;;;12.77;7.07;;;10.50;99.40;;;;;;5049605;28;20476;-71
2021/04/24 08:07:37;;;;;;;13.27;7.15;;;10.40;98.90;;;;;;5049734;28;20367;-70
2021/04/24 08:10:05;;;;;;;13.88;7.07;;;10.80;99.60;;;;;;5050422;28;20021;-73
2021/04/24 08:12:31;;;;;;;12.63;7.00;;;11.30;99.00;;;;;;5034654;28;20115;-70
2021/04/24 08:14:57;;;;;;;13.02;6.75;;;11.70;97.20;;;;;;5036558;28;20029;-72
2021/04/24 08:17:23;;;;;;;15.85;7.95;;;12.30;97.70;;;;;;5053480;28;20033;-72
2021/04/24 08:19:49;;;;;;;10.95;6.88;;;12.70;97.10;;;;;;5054028;28;20521;-71
2021/04/24 08:22:15;;;;;;;11.88;7.30;;;12.20;96.70;;;;;;5054184;28;20498;-72
2021/04/24 08:24:40;;;;;;;13.60;6.78;;;12.50;96.70;;;;;;5053000;28;20041;-71
2021/04/24 08:27:06;;;;;;;9.30;7.05;;;13.40;96.10;;;;;;5053844;28;20591;-69
2021/04/24 08:29:33;;;;;;;11.30;6.55;;;14.90;94.70;;;;;;5052944;28;20052;-70
2021/04/24 08:31:59;;;;;;;14.43;7.80;;;15.80;90.80;;;;;;5053897;28;20127;-71
2021/04/24 08:34:26;;;;;;;12.20;7.72;;;16.70;86.70;;;;;;5060169;28;20096;-72
2021/04/24 08:36:53;;;;;;;11.10;6.72;;;16.00;81.80;;;;;;5038419;28;20036;-70
2021/04/24 08:39:19;;;;;;;16.45;6.82;;;14.60;85.20;;;;;;5054999;28;20112;-69
2021/04/24 08:41:46;;;;;;;9.82;6.57;;;14.90;87.30;;;;;;5052833;28;20167;-69
2021/04/24 08:44:18;;;;;;;12.25;6.45;;;15.80;86.10;;;;;;5052573;28;20025;-69
2021/04/24 08:46:47;;;;;;;14.18;6.97;;;16.10;80.10;;;;;;5052538;28;20471;-71
2021/04/24 08:49:22;;;;;;;10.07;7.18;;;16.50;77.60;;;;;;5054499;28;20017;-69
2021/04/24 08:51:49;;;;;;;14.23;7.55;;;16.90;73.00;;;;;;5052970;28;20057;-70
2021/04/24 08:54:15;;;;;;;13.32;6.63;;;17.10;76.20;;;;;;5034504;28;20407;-70
2021/04/24 08:56:41;;;;;;;13.25;6.85;;;18.20;69.40;;;;;;5054802;28;20028;-72
2021/04/24 08:59:07;;;;;;;11.55;6.68;;;18.90;67.80;;;;;;5052618;28;20146;-71
2021/04/24 09:01:33;;;;;;;12.88;7.20;;;19.40;66.10;;;;;;5046072;28;20118;-71
2021/04/24 09:03:59;;;;;;;10.85;6.63;;;19.40;60.30;;;;;;5050895;28;20021;-70
2021/04/24 09:06:25;;;;;;;12.38;7.38;;;18.90;59.80;;;;;;5034024;28;20032;-70
2021/04/24 09:08:56;;;;;;;11.57;7.03;;;19.00;61.40;;;;;;5055126;28;20098;-72
2021/04/24 09:11:22;;;;;;;10.95;7.40;;;19.50;58.70;;;;;;5035513;28;20032;-71
2021/04/24 09:14:02;;;;;;;10.45;7.13;;;19.30;56.70;;;;;;5068331;23;20036;-74
2021/04/24 09:16:28;;;;;;;8.48;6.65;;;19.70;57.90;;;;;;5061802;28;20036;-73
2021/04/24 09:18:56;;;;;;;10.05;7.13;;;20.90;56.10;;;;;;5064112;28;20036;-73
2021/04/24 09:21:27;;;;;;;11.57;7.03;;;20.80;52.70;;;;;;5061720;28;20131;-72
2021/04/24 09:23:54;;;;;;;10.20;7.00;;;20.60;53.10;;;;;;5060956;28;20040;-73
2021/04/24 09:26:27;;;;;;;8.18;6.30;;;20.70;51.90;;;;;;5060914;28;20564;-71
2021/04/24 09:29:00;;;;;;;13.90;6.22;;;21.40;52.50;;;;;;5063433;28;20024;-72
2021/04/24 09:31:28;;;;;;;9.07;6.80;;;21.80;50.80;;;;;;5061844;28;20041;-72
2021/04/24 09:33:57;;;;;;;13.50;6.63;;;21.80;49.90;;;;;;5044029;28;20024;-73
2021/04/24 09:36:34;;;;;;;10.90;6.35;;;22.10;48.20;;;;;;5060680;28;20032;-72
2021/04/24 09:39:03;;;;;;;10.48;6.57;;;21.00;48.60;;;;;;5043825;28;20036;-71
2021/04/24 09:41:33;;;;;;;10.30;6.38;;;21.90;51.30;;;;;;5041679;28;20043;-73
2021/04/24 09:44:01;;;;;;;7.45;6.20;;;22.50;48.90;;;;;;5062730;28;20059;-73
2021/04/24 09:46:29;;;;;;;12.55;6.00;;;22.40;47.90;;;;;;5063001;28;20029;-70
2021/04/24 09:49:27;;;;;;;9.13;5.97;;;22.30;45.80;;;;;;5062689;28;20044;-70
2021/04/24 09:51:58;;;;;;;11.75;6.00;;;22.50;45.30;;;;;;5015667;28;20037;-70
2021/04/24 09:54:35;;;;;;;9.37;6.17;;;22.70;44.90;;;;;;5066217;28;20017;-70
2021/04/24 09:57:07;;;;;;;10.07;6.22;;;22.00;43.60;;;;;;5067652;28;20502;-71
2021/04/24 10:00:02;;;;;;;9.60;6.05;;;21.70;45.70;;;;;;5065436;28;20490;-69
2021/04/24 10:02:38;;;;;;;7.57;5.88;;;22.80;45.80;;;;;;5062168;28;20036;-68
2021/04/24 10:05:14;;;;;;;9.68;5.30;;;23.30;43.00;;;;;;5058935;28;20124;-69
2021/04/24 10:07:42;;;;;;;7.57;5.07;;;23.30;43.70;;;;;;5064544;28;20102;-69
2021/04/24 10:10:10;;;;;;;11.85;5.53;;;23.50;41.60;;;;;;5045615;28;20024;-68
2021/04/24 10:12:37;;;;;;;9.95;5.63;;;24.10;41.00;;;;;;5044144;28;20112;-68
2021/04/24 10:15:03;;;;;;;8.18;5.03;;;23.30;41.30;;;;;;5060047;28;20478;-70
2021/04/24 10:17:29;;;;;;;6.70;5.30;;;24.00;42.00;;;;;;5061946;28;20025;-68
2021/04/24 10:19:55;;;;;;;7.00;5.38;;;24.40;40.10;;;;;;5062328;28;20091;-69
2021/04/24 10:22:23;;;;;;;6.93;5.25;;;23.40;39.50;;;;;;5061404;28;20029;-69
2021/04/24 10:24:50;;;;;;;8.43;5.40;;;23.30;40.50;;;;;;5061813;28;20064;-72
2021/04/24 10:27:18;;;;;;;5.88;4.40;;;22.80;41.50;;;;;;5062154;28;20055;-72
2021/04/24 10:29:45;;;;;;;7.75;5.82;;;23.50;42.10;;;;;;5062668;28;20025;-71
2021/04/24 10:32:12;;;;;;;12.43;4.72;;;24.60;40.90;;;;;;5061839;28;20021;-72
2021/04/24 10:34:39;;;;;;;8.68;5.47;;;25.10;37.40;;;;;;5061185;28;20398;-72
2021/04/24 10:37:05;;;;;;;7.85;5.40;;;24.90;38.30;;;;;;5060560;28;20382;-71
2021/04/24 10:39:34;;;;;;;8.40;4.95;;;25.10;38.20;;;;;;5042816;28;20055;-70
2021/04/24 10:42:22;;;;;;;10.73;5.38;;;25.30;38.40;;;;;;5060904;28;20024;-71
2021/04/24 10:44:56;;;;;;;9.35;5.57;;;26.30;36.00;;;;;;5060486;28;20013;-72
2021/04/24 10:47:45;;;;;;;9.40;6.03;;;26.30;34.80;;;;;;5060969;28;20437;-71
2021/04/24 10:50:14;;;;;;;8.07;5.03;;;25.50;36.80;;;;;;5060768;28;20029;-71
2021/04/24 10:52:42;;;;;;;12.20;5.78;;;26.30;35.30;;;;;;5060366;28;20125;-70
2021/04/24 10:55:42;;;;;;;11.20;5.50;;;25.00;36.20;;;;;;5060420;28;20027;-70
2021/04/24 10:58:17;;;;;;;6.82;5.20;;;25.50;38.00;;;;;;5011221;28;20067;-72
2021/04/24 11:00:50;;;;;;;9.27;5.35;;;26.20;35.20;;;;;;5059227;28;20513;-72
2021/04/24 11:03:34;;;;;;;9.15;5.93;;;26.20;36.50;;;;;;5059701;28;20056;-72
2021/04/24 11:06:17;;;;;;;8.57;5.50;;;25.70;33.90;;;;;;5058618;28;20025;-71
2021/04/24 11:08:45;;;;;;;7.40;5.18;;;26.80;35.10;;;;;;5061328;28;20021;-71
2021/04/24 11:11:16;;;;;;;6.93;5.47;;;28.40;34.70;;;;;;5061020;28;20405;-72
2021/04/24 11:13:54;;;;;;;6.90;4.70;;;29.00;30.50;;;;;;5059216;28;20472;-71
2021/04/24 11:16:21;;;;;;;7.70;5.40;;;26.10;33.10;;;;;;5059808;28;20166;-71
2021/04/24 11:18:49;;;;;;;10.60;5.93;;;25.70;33.40;;;;;;5061049;28;20165;-70
2021/04/24 11:21:18;;;;;;;7.43;4.82;;;25.20;33.90;;;;;;5060484;28;20402;-72
2021/04/24 11:23:49;;;;;;;6.07;4.57;;;25.50;33.00;;;;;;5060535;28;20034;-71
2021/04/24 11:26:23;;;;;;;8.45;4.90;;;25.50;34.00;;;;;;5060974;28;20025;-72
2021/04/24 11:28:59;;;;;;;10.50;5.22;;;26.60;33.60;;;;;;5043502;28;20130;-70
2021/04/24 11:31:50;;;;;;;7.00;4.80;;;26.30;31.40;;;;;;5043187;28;20078;-71
2021/04/24 11:34:41;;;;;;;6.90;4.55;;;26.90;31.20;;;;;;5059426;28;20613;-72
2021/04/24 11:37:18;;;;;;;7.15;4.72;;;27.50;32.40;;;;;;5060153;28;20033;-71
2021/04/24 11:40:23;;;;;;;6.95;4.43;;;27.60;30.80;;;;;;5059985;28;20059;-71
2021/04/24 11:42:49;;;;;;;8.50;5.35;;;25.90;33.00;;;;;;5059623;28;20031;-72
2021/04/24 11:45:35;;;;;;;6.95;4.82;;;26.30;33.30;;;;;;5059117;28;20025;-71
2021/04/24 11:48:01;;;;;;;5.70;4.93;;;25.00;33.30;;;;;;5059269;28;20338;-72
2021/04/24 11:50:41;;;;;;;7.30;4.70;;;26.30;32.10;;;;;;5065544;28;20104;-70
2021/04/24 11:53:07;;;;;;;7.43;5.25;;;25.70;36.20;;;;;;5063295;28;20039;-71
2021/04/24 11:55:33;;;;;;;9.15;5.15;;;23.70;40.60;;;;;;5064899;28;20037;-70
2021/04/24 11:58:11;;;;;;;6.50;5.38;;;23.70;40.70;;;;;;5062950;28;20025;-72
2021/04/24 12:00:37;;;;;;;8.07;4.25;;;24.00;38.50;;;;;;5063341;28;20047;-70
2021/04/24 12:03:04;;;;;;;6.25;5.00;;;24.80;37.20;;;;;;5045228;28;20035;-72
2021/04/24 12:05:30;;;;;;;7.22;5.50;;;24.60;34.60;;;;;;5063850;28;20718;-70
2021/04/24 12:07:56;;;;;;;8.07;5.20;;;25.00;33.20;;;;;;5045361;28;20032;-70
2021/04/24 12:10:28;;;;;;;6.10;4.43;;;26.00;33.20;;;;;;5063216;28;20033;-69
2021/04/24 12:13:06;;;;;;;7.78;4.72;;;25.70;34.40;;;;;;5062187;28;20024;-71
2021/04/24 12:15:32;;;;;;;8.25;4.85;;;24.10;35.90;;;;;;5063447;28;20039;-70
2021/04/24 12:18:06;;;;;;;8.10;5.03;;;23.10;35.10;;;;;;5062898;28;20108;-69
2021/04/24 12:20:36;;;;;;;7.20;4.82;;;23.50;34.20;;;;;;5063000;28;20044;-71
2021/04/24 12:23:13;;;;;;;7.05;5.50;;;23.40;35.40;;;;;;5062485;28;20407;-70
2021/04/24 12:25:46;;;;;;;6.03;4.35;;;23.50;38.10;;;;;;5064444;28;20024;-70
2021/04/24 12:28:12;;;;;;;7.82;3.60;;;24.90;33.90;;;;;;5064816;28;20536;-69
2021/04/24 12:30:40;;;;;;;6.20;4.38;;;24.50;31.40;;;;;;5065707;28;20066;-69
2021/04/24 12:33:12;;;;;;;4.93;3.55;;;23.90;33.60;;;;;;5046595;28;20036;-70
2021/04/24 12:35:42;;;;;;;;;;;24.80;32.30;;;;;;5064824;28;20505;-69
2021/04/24 12:38:08;;;;;;;3.28;2.97;;;25.70;31.90;;;;;;5065468;28;19905;-70
2021/04/24 12:40:43;;;;;;;7.53;3.42;;;25.50;30.30;;;;;;5065796;28;20035;-69
2021/04/24 12:43:30;;;;;;;4.55;3.33;;;25.60;32.10;;;;;;5063502;28;20025;-70
2021/04/24 12:45:58;;;;;;;8.68;4.00;;;25.10;32.80;;;;;;5063239;28;20143;-70
2021/04/24 12:48:27;;;;;;;3.70;3.00;;;25.20;31.80;;;;;;5062411;28;20033;-70
2021/04/24 12:50:58;;;;;;;4.43;3.67;;;24.20;33.50;;;;;;5062378;28;20475;-71